»·PEaware :: RSP525 KASE-KPRC

RSP525 :: KASE-KPRC

FLIGHT INFORMATION

Flight Status: Arrived
Operator: Unknown
More flights by this operator :: More flights under this callsign
Pilot: Tomas M. (4063)
Aircraft: CESSNA 550 CITATION 2/S2/BRAVO
(C550)
More flights by this aircraft type
Origin: KASE Aspen-Pitkin Co/Sardy
United States
Destination: KPRC Love
United States
More flights between these airports :: More routes between these airports
Route: LINDZ9 JNC PGA GCN V257 DRK
File this flight plan on PilotEdge
Remarks:
Altitude:
(Current/Filed)
34,000ft
Speed:
(Current/Filed)
365kts
Departed: 27-Sep-23 07:40 AM
Arrived: 27-Sep-23 09:00 AM
Distance/Time
Traveled:
0nm/1:20
Distance/Time
To Go:
Arrived

Flight Plot

Page will automatically refresh every two minutes.

Flight plan parsing failed; only flown route is shown


Map Options




Map Legend


Flown Route
Filed Route
Departure Airport
Arrival Airport
Navaid (VOR, NDB)
Fix

Horizontal Profiles

Position Reports

Time Latitude Longitude Heading Altitude Ground
Speed
27-Sep-23 07:23 39.222019 -106.865414 244 7842ft 0kts
27-Sep-23 07:24 39.222019 -106.865414 244 7842ft 0kts
27-Sep-23 07:25 39.222019 -106.865414 244 7842ft 0kts
27-Sep-23 07:26 39.222019 -106.865414 244 7842ft 0kts
27-Sep-23 07:27 39.222019 -106.865414 244 7842ft 0kts
27-Sep-23 07:28 39.222019 -106.865414 244 7842ft 0kts
27-Sep-23 07:29 39.222019 -106.865414 244 7842ft 0kts
27-Sep-23 07:30 39.222019 -106.865414 244 7842ft 0kts
27-Sep-23 07:31 39.222014 -106.865424 240 7842ft 0kts
27-Sep-23 07:32 39.221725 -106.865702 215 7842ft 0kts
27-Sep-23 07:33 39.219126 -106.865682 159 7842ft 26kts
27-Sep-23 07:34 39.214584 -106.863518 160 7842ft 8kts
27-Sep-23 07:35 39.212368 -106.862483 160 7842ft 0kts
27-Sep-23 07:36 39.212368 -106.862483 160 7842ft 0kts
27-Sep-23 07:37 39.212368 -106.862483 160 7842ft 0kts
27-Sep-23 07:38 39.212014 -106.862466 208 7842ft 6kts
27-Sep-23 07:39 39.222709 -106.868631 339 7850ft 129kts
27-Sep-23 07:40 39.259589 -106.885902 304 9744ft 158kts
27-Sep-23 07:41 39.272027 -106.948033 280 11398ft 218kts
27-Sep-23 07:42 39.292041 -107.033051 308 12824ft 272kts
27-Sep-23 07:43 39.345431 -107.102594 314 14966ft 275kts
27-Sep-23 07:44 39.381031 -107.182892 273 17306ft 264kts
27-Sep-23 07:45 39.365840 -107.277664 257 18990ft 274kts
27-Sep-23 07:46 39.346873 -107.373657 257 20548ft 280kts
27-Sep-23 07:47 39.327485 -107.472407 257 21941ft 286kts
27-Sep-23 07:48 39.307678 -107.572748 257 23190ft 292kts
27-Sep-23 07:49 39.287422 -107.675272 256 24318ft 298kts
27-Sep-23 07:50 39.266952 -107.778004 256 25833ft 287kts
27-Sep-23 07:51 39.241029 -107.876430 234 26753ft 299kts
27-Sep-23 07:52 39.188761 -107.961296 233 27856ft 306kts
27-Sep-23 07:53 39.135610 -108.047159 233 29066ft 309kts
27-Sep-23 07:54 39.081640 -108.134781 233 30029ft 316kts
27-Sep-23 07:55 39.027171 -108.222981 233 31225ft 311kts
27-Sep-23 07:56 38.973265 -108.310122 233 32079ft 315kts
27-Sep-23 07:57 38.918479 -108.398411 234 33055ft 316kts
27-Sep-23 07:58 38.862904 -108.487715 234 33883ft 319kts
27-Sep-23 07:59 38.806941 -108.577421 234 34389ft 328kts
27-Sep-23 08:00 38.747801 -108.672015 233 34292ft 344kts
27-Sep-23 08:01 38.687018 -108.768891 233 34293ft 351kts
27-Sep-23 08:02 38.625293 -108.866823 233 34293ft 355kts
27-Sep-23 08:03 38.563068 -108.965302 233 34292ft 357kts
27-Sep-23 08:04 38.500594 -109.063907 233 34251ft 358kts
27-Sep-23 08:05 38.437747 -109.162800 233 34205ft 359kts
27-Sep-23 08:06 38.374806 -109.261529 233 34201ft 359kts
27-Sep-23 08:07 38.311844 -109.359992 233 34276ft 358kts
27-Sep-23 08:08 38.249077 -109.457859 233 34351ft 357kts
27-Sep-23 08:09 38.186216 -109.555591 233 34372ft 357kts
27-Sep-23 08:10 38.123266 -109.653162 233 34296ft 360kts
27-Sep-23 08:11 38.059262 -109.752049 233 34303ft 359kts
27-Sep-23 08:12 37.995891 -109.849655 233 34303ft 359kts
27-Sep-23 08:13 37.932270 -109.947368 233 34297ft 359kts
27-Sep-23 08:14 37.868237 -110.045421 233 34270ft 360kts
27-Sep-23 08:15 37.803747 -110.143859 233 34274ft 359kts
27-Sep-23 08:16 37.740122 -110.240696 233 34274ft 359kts
27-Sep-23 08:17 37.676108 -110.337840 233 34237ft 359kts
27-Sep-23 08:18 37.612106 -110.434674 233 34208ft 359kts
27-Sep-23 08:19 37.548288 -110.530932 233 34217ft 358kts
27-Sep-23 08:20 37.484359 -110.627088 233 34202ft 358kts
27-Sep-23 08:21 37.419924 -110.723717 232 34193ft 359kts
27-Sep-23 08:22 37.355699 -110.819664 232 34193ft 359kts
27-Sep-23 08:23 37.291400 -110.915593 232 34192ft 359kts
27-Sep-23 08:24 37.226863 -111.011542 232 34192ft 358kts
27-Sep-23 08:25 37.162366 -111.107135 232 34191ft 358kts
27-Sep-23 08:26 37.098083 -111.202137 232 34191ft 358kts
27-Sep-23 08:27 37.033781 -111.296851 232 34190ft 358kts
27-Sep-23 08:28 36.969338 -111.391576 232 34190ft 357kts
27-Sep-23 08:29 36.895152 -111.473691 213 34190ft 363kts
27-Sep-23 08:30 36.807217 -111.537999 213 34189ft 363kts
27-Sep-23 08:31 36.720067 -111.601238 213 34189ft 362kts
27-Sep-23 08:32 36.632743 -111.664507 212 34193ft 362kts
27-Sep-23 08:33 36.544766 -111.728096 212 34193ft 363kts
27-Sep-23 08:34 36.457648 -111.790893 212 34200ft 363kts
27-Sep-23 08:35 36.370662 -111.853422 212 34276ft 361kts
27-Sep-23 08:36 36.283936 -111.915614 212 34329ft 361kts
27-Sep-23 08:37 36.196938 -111.977846 212 34329ft 361kts
27-Sep-23 08:38 36.110056 -112.039898 212 34328ft 361kts
27-Sep-23 08:39 36.023016 -112.101765 212 34328ft 362kts
27-Sep-23 08:40 35.936209 -112.163634 213 34328ft 361kts
27-Sep-23 08:41 35.848172 -112.228884 213 33268ft 387kts
27-Sep-23 08:42 35.755333 -112.297478 213 31260ft 393kts
27-Sep-23 08:43 35.661416 -112.366301 213 29171ft 392kts
27-Sep-23 08:44 35.565758 -112.424882 191 26857ft 388kts
27-Sep-23 08:45 35.459410 -112.435882 185 24442ft 378kts
27-Sep-23 08:46 35.356901 -112.441171 180 21825ft 364kts
27-Sep-23 08:47 35.256393 -112.444485 184 19887ft 368kts
27-Sep-23 08:48 35.158111 -112.451084 184 18076ft 332kts
27-Sep-23 08:49 35.062569 -112.457458 184 16227ft 353kts
27-Sep-23 08:50 34.968875 -112.463365 184 14212ft 328kts
27-Sep-23 08:51 34.879657 -112.469077 185 12200ft 317kts
27-Sep-23 08:52 34.801217 -112.473632 180 12030ft 227kts
27-Sep-23 08:53 34.756653 -112.421560 114 10576ft 256kts
27-Sep-23 08:54 34.716899 -112.364249 134 8326ft 181kts
27-Sep-23 08:55 34.726233 -112.322825 357 7298ft 190kts
27-Sep-23 08:56 34.719785 -112.350242 206 7009ft 189kts
27-Sep-23 08:57 34.686423 -112.385569 222 5659ft 142kts
27-Sep-23 08:58 34.660139 -112.413491 222 4964ft 112kts
27-Sep-23 08:59 34.648443 -112.424251 163 5017ft 10kts
27-Sep-23 09:00 34.646817 -112.425254 219 5026ft 3kts
27-Sep-23 09:01 34.646699 -112.425269 130 5027ft 0kts
27-Sep-23 09:02 34.646699 -112.425269 130 5027ft 0kts
27-Sep-23 09:03 34.646699 -112.425269 130 5027ft 0kts
27-Sep-23 09:04 34.646699 -112.425269 130 5027ft 0kts
27-Sep-23 09:06 34.646699 -112.425269 130 5027ft 0kts
27-Sep-23 09:07 39.222014 -106.865425 244 7842ft 0kts
27-Sep-23 09:08 39.222014 -106.865425 244 7842ft 0kts
27-Sep-23 09:09 39.222014 -106.865425 244 7842ft 0kts

Navigation Log

Ident Type
Flight plan parsing failed, navigation log unavailable